Форум клана ЧПУшников

Информация о пользователе

Привет, Гость! Войдите или зарегистрируйтесь.


Вы здесь » Форум клана ЧПУшников » Лазерные станки


Лазерные станки

Тем 401 страница 480 из 510

Тема Ответов Просмотров Последнее сообщение
5 174 27-02-2016 08:50:26  Flint2015
402 Тестирование размера реза  Виктор Краски
9 475 26-02-2016 16:55:55  daguss
403 кривая резка  Восходник
17 490 26-02-2016 00:06:30  semerochka
80 6051 22-02-2016 20:51:36  Kinetic
17 966 22-02-2016 12:02:26  Kinetic
5 602 14-02-2016 15:24:59  gabber
7 433 14-02-2016 12:43:54  Zippo
12 379 12-02-2016 17:15:38  Yaroslavl
2 210 12-02-2016 10:23:44  Администратор
22 885 07-02-2016 15:27:40  Imobile
6 322 28-01-2016 17:09:21  StarPOM
25 998 26-01-2016 15:23:58  Zippo
3 247 07-01-2016 00:45:42  okruk
4 245 05-01-2016 10:25:43  markaru
415 Нужна помощь специалистов!  Мастер на все руки
30 1311 02-01-2016 20:05:38  racon75
7 212 24-12-2015 12:08:34  lexus80
22 2578 21-12-2015 14:22:31  Kuz
14 370 14-12-2015 15:59:50  YuSTas
8 334 12-12-2015 20:20:10  Shamankiller
15 574 12-12-2015 18:02:39  racon75
38 938 08-12-2015 23:46:50  asor
35 902 08-12-2015 18:35:57  dm6
8 362 07-12-2015 21:25:28  Dimon
25 908 04-12-2015 21:36:10  Silmaril
425 Лазерный станок Kamach II 1280 AS  радион рашитович
4 238 04-12-2015 20:36:20  Airside
4 303 04-12-2015 10:56:16  Drakonstar
9 647 29-11-2015 02:45:00  Лазорез
38 805 27-11-2015 18:12:36  ЫХ-000
41 1431 27-11-2015 12:34:06  Slym
44 1871 22-11-2015 11:50:31  _king_
431 mpc6525 - завис  Dr_dober
2 249 16-11-2015 12:54:39  Dr_dober
30 2232 09-11-2015 16:17:15  bort747
1 209 07-11-2015 14:48:03  MobileMan
434 Гравивовка на iPhone  Максим1975
9 601 28-10-2015 12:02:57  Восходник
44 1197 25-10-2015 16:54:39  tok17
3 241 25-10-2015 11:20:20  Фёдор Соколов
12 645 24-10-2015 11:53:29  yri71
21 1864 21-10-2015 23:59:06  dmitrymi
10 783 20-10-2015 16:04:37  YuSTas
2 102 20-10-2015 15:35:36  Kuz
6 245 15-10-2015 09:36:29  Валерия-206
3 197 13-10-2015 11:20:10  Kuz
1 152 06-10-2015 16:34:03  coolmail
29 1067 30-09-2015 12:07:02  olejah
9 407 28-09-2015 04:25:16  BlackOx
446 Расфокусировка  Прокоп
8 315 24-09-2015 20:30:02  Прокоп
14 381 24-09-2015 20:07:38  Lord
6 239 23-09-2015 08:43:57  Airside
3 129 22-09-2015 17:06:12  PalSecam
3 164 22-09-2015 14:56:27  PalSecam
2 174 16-09-2015 22:31:09  Артем-70
35 500 04-09-2015 12:04:29  ecto
5 257 02-09-2015 16:35:06  Halkin
2 397 01-09-2015 22:56:15  Soundlab 77
455 Станок для резки  владимир1070
7 310 27-08-2015 01:47:38  tok17
3 450 05-08-2015 09:46:16  Zeech79
25 793 31-07-2015 11:57:43  Orly
5 395 19-07-2015 11:20:49  Imobile
11 369 15-07-2015 22:09:31  igorzh
5 455 04-07-2015 14:13:00  Fototek
8 2505 25-06-2015 17:57:47  Nokoone
462 Трубка Reci Z8  Zeech79
7 401 25-06-2015 17:53:05  Kuz
1 179 25-06-2015 04:34:38  ThunderLaser_Nolan
2 187 23-06-2015 17:46:06  Halkin
6 215 19-06-2015 13:27:58  Flint2015
8 1048 19-06-2015 10:30:36  shraik
24 1382 15-06-2015 12:51:19  AndreyTK
5 447 02-06-2015 13:45:22  Юрий Ф
4 621 22-05-2015 14:04:43  Neudrums
3 684 14-05-2015 20:26:36  Flint2015
4 331 10-05-2015 11:46:24  papakarlokzn
5 452 05-05-2015 18:49:36  ФокусССЗ
19 5494 04-05-2015 09:40:40  uxtbl
474 Закрыта Подскажите по резке акрила  Нюхоскоп
6 214 01-05-2015 18:13:38  mrak61ru
34 963 29-04-2015 22:02:42  mrak61ru
3 168 28-04-2015 16:29:28  MOIS
7 573 25-04-2015 15:22:04  mrak
16 1210 23-04-2015 00:48:44  mrak
0 157 22-04-2015 09:47:04  икарик
480 LaserPro spirit 12w  Нюхоскоп
21 610 19-04-2015 22:46:48  mrak

Вы здесь » Форум клана ЧПУшников » Лазерные станки